Terminal Aerodrome Forecast
Issued by NWS

Home | Current Version | Previous Version | Text Only | Print | Product List | Glossary On
Versions: 1 2 3 4 5 6 7 8 9 10 11 12 13 14 15 16 17 18 19 20 21 22 23 24 25 26 27 28
000
FTUS45 KGJT 261127
TAFASE
TAF
KASE 261127Z 2612/2712 20005KT P6SM SCT150 BKN200
     FM261500 01004KT P6SM SCT200
     FM261900 33008G18KT P6SM VCTS SCT070CB BKN120
     FM270200 20008KT P6SM SCT080 BKN200
     FM270600 18007KT P6SM SCT250=

USA.gov is the U.S. government's official web portal to all federal, state and local government web resources and services.